Airfield :
LOGIN :

Register | Disclaimer

   EN    FR    IT 

 










Legend :    VFR   Marginal VFR   IFR   Intensive IFR   Very Intensive IFR
Visi :
Ceiling :
>= 8 km
>= 3000ft
5 to 8 km
1000 to 3000 ft
1500m to 5 km
500 to 1000 ft
800 to 1500m
200 to 500 ft
< 800m
< 200 ft
Symbols :   Thunderstorms  Fog  Heavy snow  Heavy precipitations  Wind > 20 kt
SIGMETs :     Misc.  Thunderstorms  Icing  Turbulence  Mountain Waves  Volcanic Ashes






- Airport Elevation : 14 ft
- IATA code : BRE


EDDW - Bremen Neuenland

CURRENT METAR :
  • 100850Z 23003KT 210V280 CAVOK 02/00 Q1023 NOSIG

EXPIRED METARs :
  • 100820Z VRB02KT CAVOK 01/M00 Q1022 NOSIG
  • 100750Z 23003KT 190V260 9999 FEW035 01/M00 Q1022 NOSIG
  • 100720Z 26002KT 9999 FEW035 01/M00 Q1022 NOSIG
  • 100650Z 27004KT 9999 FEW035 01/M01 Q1022 NOSIG
  • 100620Z 26005KT 9999 FEW022 01/M01 Q1021 NOSIG

TAF TAF EDDW
Valid from the 10 at 06:00 until the 11 at 06:00 UTC


100500Z 1006/1106 25008KT 9999 FEW030
BECMG 1010/1012 19011KT
TEMPO 1021/1106 19015G25KT
BECMG 1102/1104 BKN012
PROB30
TEMPO 1102/1105 20020G30KT
TEMPO 1103/1106 3500 RADZ BKN007



MET'MAP, your aeronautical weather chart ! - Copyright ORBIFLY December 2007 - Disclaimer

ORBIFLY MET'MAP TEAM :

Programming & Development : Alexandra Zaïnal
Concept & original design : Baudouin d'Aumeries
Assistance for programming : Marc-Olivier Méhu
Technical & hardware support : Manuel Goepfert

Contact : metmap@orbifly.com




SOURCES & CREDITS :

   NOAA